sensor_id;sensor_type;location;lat;lon;timestamp;temperature;humidity
12370;DHT22;6249;52.128;9.986;2023-09-07T00:09:13;18.70;99.90
12370;DHT22;6249;52.128;9.986;2023-09-07T00:19:16;18.50;99.90
12370;DHT22;6249;52.128;9.986;2023-09-07T00:29:21;18.10;99.90
12370;DHT22;6249;52.128;9.986;2023-09-07T00:39:22;18.00;99.90
12370;DHT22;6249;52.128;9.986;2023-09-07T00:49:24;18.00;99.90
12370;DHT22;6249;52.128;9.986;2023-09-07T00:59:39;17.70;99.90
12370;DHT22;6249;52.128;9.986;2023-09-07T01:09:43;17.60;99.90
12370;DHT22;6249;52.128;9.986;2023-09-07T01:19:46;17.40;99.90
12370;DHT22;6249;52.128;9.986;2023-09-07T01:29:51;17.20;99.90
12370;DHT22;6249;52.128;9.986;2023-09-07T01:39:52;17.00;99.90
12370;DHT22;6249;52.128;9.986;2023-09-07T01:49:55;16.80;99.90
12370;DHT22;6249;52.128;9.986;2023-09-07T01:59:56;16.80;99.90
12370;DHT22;6249;52.128;9.986;2023-09-07T02:10:01;16.60;99.90
12370;DHT22;6249;52.128;9.986;2023-09-07T02:20:04;16.70;99.90
12370;DHT22;6249;52.128;9.986;2023-09-07T02:30:15;16.50;99.90
12370;DHT22;6249;52.128;9.986;2023-09-07T02:40:16;16.30;99.90
12370;DHT22;6249;52.128;9.986;2023-09-07T02:50:17;16.10;99.90
12370;DHT22;6249;52.128;9.986;2023-09-07T03:00:18;16.00;99.90
12370;DHT22;6249;52.128;9.986;2023-09-07T03:10:18;15.70;99.90
12370;DHT22;6249;52.128;9.986;2023-09-07T03:20:21;15.50;99.90
12370;DHT22;6249;52.128;9.986;2023-09-07T03:30:24;15.50;99.90
12370;DHT22;6249;52.128;9.986;2023-09-07T03:40:27;15.40;99.90
12370;DHT22;6249;52.128;9.986;2023-09-07T03:50:28;15.30;99.90
12370;DHT22;6249;52.128;9.986;2023-09-07T04:00:31;14.90;99.90
12370;DHT22;6249;52.128;9.986;2023-09-07T04:10:35;14.90;99.90
12370;DHT22;6249;52.128;9.986;2023-09-07T04:20:36;14.90;99.90
12370;DHT22;6249;52.128;9.986;2023-09-07T04:30:38;14.80;99.90
12370;DHT22;6249;52.128;9.986;2023-09-07T04:40:43;14.70;99.90
12370;DHT22;6249;52.128;9.986;2023-09-07T04:50:46;14.70;99.90
12370;DHT22;6249;52.128;9.986;2023-09-07T05:00:49;14.60;99.90
12370;DHT22;6249;52.128;9.986;2023-09-07T05:10:56;14.70;99.90
12370;DHT22;6249;52.128;9.986;2023-09-07T05:20:59;14.60;99.90
12370;DHT22;6249;52.128;9.986;2023-09-07T05:31:00;14.60;99.90
12370;DHT22;6249;52.128;9.986;2023-09-07T05:41:00;14.70;99.90
12370;DHT22;6249;52.128;9.986;2023-09-07T05:51:01;14.70;99.90
12370;DHT22;6249;52.128;9.986;2023-09-07T06:01:01;14.90;99.90
12370;DHT22;6249;52.128;9.986;2023-09-07T06:11:02;15.00;99.90
12370;DHT22;6249;52.128;9.986;2023-09-07T06:21:06;15.20;99.90
12370;DHT22;6249;52.128;9.986;2023-09-07T06:31:09;15.60;99.90
12370;DHT22;6249;52.128;9.986;2023-09-07T06:41:09;16.10;99.90
12370;DHT22;6249;52.128;9.986;2023-09-07T06:51:12;16.60;99.90
12370;DHT22;6249;52.128;9.986;2023-09-07T07:01:18;17.10;99.90
12370;DHT22;6249;52.128;9.986;2023-09-07T07:11:21;17.70;99.90
12370;DHT22;6249;52.128;9.986;2023-09-07T07:21:21;18.30;99.90
12370;DHT22;6249;52.128;9.986;2023-09-07T07:31:24;18.80;99.90
12370;DHT22;6249;52.128;9.986;2023-09-07T07:41:25;19.40;99.90
12370;DHT22;6249;52.128;9.986;2023-09-07T07:51:28;20.00;99.90
12370;DHT22;6249;52.128;9.986;2023-09-07T08:01:28;20.60;99.90
12370;DHT22;6249;52.128;9.986;2023-09-07T08:11:31;21.30;99.90
12370;DHT22;6249;52.128;9.986;2023-09-07T08:21:32;21.90;99.90
12370;DHT22;6249;52.128;9.986;2023-09-07T08:31:38;22.80;99.90
12370;DHT22;6249;52.128;9.986;2023-09-07T08:41:42;23.80;99.90
12370;DHT22;6249;52.128;9.986;2023-09-07T08:51:46;24.30;99.90
12370;DHT22;6249;52.128;9.986;2023-09-07T09:01:50;24.90;99.90
12370;DHT22;6249;52.128;9.986;2023-09-07T09:11:57;25.50;99.90
12370;DHT22;6249;52.128;9.986;2023-09-07T09:22:06;26.30;99.90
12370;DHT22;6249;52.128;9.986;2023-09-07T09:32:07;27.00;99.90
12370;DHT22;6249;52.128;9.986;2023-09-07T09:42:08;28.00;99.90
12370;DHT22;6249;52.128;9.986;2023-09-07T09:52:12;28.90;99.20
12370;DHT22;6249;52.128;9.986;2023-09-07T10:02:15;30.00;97.20
12370;DHT22;6249;52.128;9.986;2023-09-07T10:12:27;31.00;94.70
12370;DHT22;6249;52.128;9.986;2023-09-07T10:22:32;31.90;92.10
12370;DHT22;6249;52.128;9.986;2023-09-07T10:32:40;32.50;90.90
12370;DHT22;6249;52.128;9.986;2023-09-07T10:42:46;33.60;89.50
12370;DHT22;6249;52.128;9.986;2023-09-07T10:52:47;34.30;83.80
12370;DHT22;6249;52.128;9.986;2023-09-07T11:02:47;35.20;79.00
12370;DHT22;6249;52.128;9.986;2023-09-07T11:12:51;36.10;75.80
12370;DHT22;6249;52.128;9.986;2023-09-07T11:22:52;36.50;71.30
12370;DHT22;6249;52.128;9.986;2023-09-07T11:33:00;37.80;66.30
12370;DHT22;6249;52.128;9.986;2023-09-07T11:43:03;38.70;63.30
12370;DHT22;6249;52.128;9.986;2023-09-07T11:53:06;39.70;57.30
12370;DHT22;6249;52.128;9.986;2023-09-07T12:03:12;40.60;54.30
12370;DHT22;6249;52.128;9.986;2023-09-07T12:13:17;41.00;51.00
12370;DHT22;6249;52.128;9.986;2023-09-07T12:23:18;41.30;49.80
12370;DHT22;6249;52.128;9.986;2023-09-07T12:33:20;41.30;49.00
12370;DHT22;6249;52.128;9.986;2023-09-07T12:43:23;42.10;47.10
12370;DHT22;6249;52.128;9.986;2023-09-07T12:53:27;42.50;46.90
12370;DHT22;6249;52.128;9.986;2023-09-07T13:03:33;42.10;45.10
12370;DHT22;6249;52.128;9.986;2023-09-07T13:13:33;42.30;44.90
12370;DHT22;6249;52.128;9.986;2023-09-07T13:23:34;42.70;43.30
12370;DHT22;6249;52.128;9.986;2023-09-07T13:33:37;43.20;42.70
12370;DHT22;6249;52.128;9.986;2023-09-07T13:43:37;42.90;41.50
12370;DHT22;6249;52.128;9.986;2023-09-07T13:53:40;42.70;39.70
12370;DHT22;6249;52.128;9.986;2023-09-07T14:03:43;42.90;40.60
12370;DHT22;6249;52.128;9.986;2023-09-07T14:13:44;43.80;37.80
12370;DHT22;6249;52.128;9.986;2023-09-07T14:23:45;44.00;35.70
12370;DHT22;6249;52.128;9.986;2023-09-07T14:33:45;44.40;36.00
12370;DHT22;6249;52.128;9.986;2023-09-07T14:43:46;44.90;36.20
12370;DHT22;6249;52.128;9.986;2023-09-07T14:53:50;44.90;33.50
12370;DHT22;6249;52.128;9.986;2023-09-07T15:03:53;45.00;34.50
12370;DHT22;6249;52.128;9.986;2023-09-07T15:13:53;45.20;32.70
12370;DHT22;6249;52.128;9.986;2023-09-07T15:23:55;45.10;33.50
12370;DHT22;6249;52.128;9.986;2023-09-07T15:33:56;44.80;34.40
12370;DHT22;6249;52.128;9.986;2023-09-07T15:43:56;44.80;33.80
12370;DHT22;6249;52.128;9.986;2023-09-07T15:53:57;44.10;34.70
12370;DHT22;6249;52.128;9.986;2023-09-07T16:04:00;44.70;34.40
12370;DHT22;6249;52.128;9.986;2023-09-07T16:14:03;43.30;34.70
12370;DHT22;6249;52.128;9.986;2023-09-07T16:24:07;43.60;35.20
12370;DHT22;6249;52.128;9.986;2023-09-07T16:34:07;42.80;36.50
12370;DHT22;6249;52.128;9.986;2023-09-07T16:44:08;42.00;37.80
12370;DHT22;6249;52.128;9.986;2023-09-07T16:54:08;40.30;38.00
12370;DHT22;6249;52.128;9.986;2023-09-07T17:04:11;36.80;44.30
12370;DHT22;6249;52.128;9.986;2023-09-07T17:14:12;34.50;47.30
12370;DHT22;6249;52.128;9.986;2023-09-07T17:24:17;33.10;50.70
12370;DHT22;6249;52.128;9.986;2023-09-07T17:34:18;31.90;52.80
12370;DHT22;6249;52.128;9.986;2023-09-07T17:44:18;30.90;55.30
12370;DHT22;6249;52.128;9.986;2023-09-07T17:54:19;30.40;56.80
12370;DHT22;6249;52.128;9.986;2023-09-07T18:04:22;29.60;59.50
12370;DHT22;6249;52.128;9.986;2023-09-07T18:14:22;29.10;61.50
12370;DHT22;6249;52.128;9.986;2023-09-07T18:24:27;28.60;64.50
12370;DHT22;6249;52.128;9.986;2023-09-07T18:34:27;28.00;66.90
12370;DHT22;6249;52.128;9.986;2023-09-07T18:44:28;27.60;70.20
12370;DHT22;6249;52.128;9.986;2023-09-07T18:54:32;27.20;73.30
12370;DHT22;6249;52.128;9.986;2023-09-07T19:04:33;26.90;76.10
12370;DHT22;6249;52.128;9.986;2023-09-07T19:14:33;26.60;79.20
12370;DHT22;6249;52.128;9.986;2023-09-07T19:24:36;26.40;80.70
12370;DHT22;6249;52.128;9.986;2023-09-07T19:34:37;26.20;83.60
12370;DHT22;6249;52.128;9.986;2023-09-07T19:44:37;25.90;86.40
12370;DHT22;6249;52.128;9.986;2023-09-07T19:54:38;25.40;90.40
12370;DHT22;6249;52.128;9.986;2023-09-07T20:04:38;25.20;92.50
12370;DHT22;6249;52.128;9.986;2023-09-07T20:14:43;24.90;93.50
12370;DHT22;6249;52.128;9.986;2023-09-07T20:24:43;24.90;94.10
12370;DHT22;6249;52.128;9.986;2023-09-07T20:34:44;24.70;95.60
12370;DHT22;6249;52.128;9.986;2023-09-07T20:44:45;24.40;96.70
12370;DHT22;6249;52.128;9.986;2023-09-07T20:54:48;24.10;98.00
12370;DHT22;6249;52.128;9.986;2023-09-07T21:04:48;24.00;98.10
12370;DHT22;6249;52.128;9.986;2023-09-07T21:14:51;23.40;99.90
12370;DHT22;6249;52.128;9.986;2023-09-07T21:24:52;22.50;99.90
12370;DHT22;6249;52.128;9.986;2023-09-07T21:34:52;22.20;99.90
12370;DHT22;6249;52.128;9.986;2023-09-07T21:44:57;22.00;99.90
12370;DHT22;6249;52.128;9.986;2023-09-07T21:54:59;21.80;99.90
12370;DHT22;6249;52.128;9.986;2023-09-07T22:05:00;21.50;99.90
12370;DHT22;6249;52.128;9.986;2023-09-07T22:15:01;21.20;99.90
12370;DHT22;6249;52.128;9.986;2023-09-07T22:25:01;20.90;99.90
12370;DHT22;6249;52.128;9.986;2023-09-07T22:35:02;20.80;99.90
12370;DHT22;6249;52.128;9.986;2023-09-07T22:45:03;20.70;99.90
12370;DHT22;6249;52.128;9.986;2023-09-07T22:55:05;20.60;99.90
12370;DHT22;6249;52.128;9.986;2023-09-07T23:05:09;20.50;99.90
12370;DHT22;6249;52.128;9.986;2023-09-07T23:15:09;20.40;99.90
12370;DHT22;6249;52.128;9.986;2023-09-07T23:25:13;20.20;99.90
12370;DHT22;6249;52.128;9.986;2023-09-07T23:35:13;19.70;99.90
12370;DHT22;6249;52.128;9.986;2023-09-07T23:45:14;19.40;99.90
12370;DHT22;6249;52.128;9.986;2023-09-07T23:55:15;19.20;99.90
